createdAt,value
2018-08-30T00:01:59.015Z,57.17
2018-08-30T00:04:26.255Z,57.48
2018-08-30T00:06:53.493Z,57.06
2018-08-30T00:09:20.700Z,57.60
2018-08-30T00:11:47.937Z,57.17
2018-08-30T00:14:15.141Z,57.46
2018-08-30T00:16:42.410Z,57.80
2018-08-30T00:22:01.560Z,58.99
2018-08-30T00:24:28.777Z,59.31
2018-08-30T00:26:56.013Z,59.50
2018-08-30T00:29:23.246Z,59.74
2018-08-30T00:31:50.467Z,59.57
2018-08-30T00:34:17.671Z,60.13
2018-08-30T00:36:44.915Z,60.25
2018-08-30T00:39:12.159Z,59.86
2018-08-30T00:41:39.447Z,59.78
2018-08-30T00:44:06.669Z,59.76
2018-08-30T00:46:33.930Z,59.71
2018-08-30T00:49:01.138Z,59.55
2018-08-30T00:51:28.382Z,59.35
2018-08-30T00:53:55.593Z,59.44
2018-08-30T00:56:22.830Z,59.30
2018-08-30T00:58:50.054Z,59.42
2018-08-30T01:01:17.273Z,59.35
2018-08-30T01:03:44.483Z,59.43
2018-08-30T01:06:11.809Z,59.45
2018-08-30T01:08:39.094Z,59.45
2018-08-30T01:11:06.627Z,59.30
2018-08-30T01:13:33.870Z,59.44
2018-08-30T01:16:01.085Z,59.19
2018-08-30T01:18:28.340Z,59.20
2018-08-30T01:20:55.631Z,59.27
2018-08-30T01:23:22.897Z,59.51
2018-08-30T01:25:50.141Z,59.63
2018-08-30T01:28:17.365Z,59.57
2018-08-30T01:30:44.629Z,59.53
2018-08-30T01:33:11.833Z,59.78
2018-08-30T01:35:39.242Z,60.07
2018-08-30T01:38:06.622Z,60.89
2018-08-30T01:40:33.891Z,60.90
2018-08-30T01:43:01.146Z,61.40
2018-08-30T01:45:28.344Z,61.72
2018-08-30T01:47:55.578Z,61.73
2018-08-30T01:50:22.789Z,62.18
2018-08-30T01:52:50.104Z,62.24
2018-08-30T01:55:17.341Z,62.15
2018-08-30T01:57:44.597Z,62.07
2018-08-30T02:00:11.824Z,62.45
2018-08-30T02:02:39.049Z,62.33
2018-08-30T02:05:06.320Z,62.46
2018-08-30T02:07:33.536Z,62.38
2018-08-30T02:10:00.758Z,62.44
2018-08-30T02:12:28.030Z,62.56
2018-08-30T02:14:55.246Z,62.51
2018-08-30T02:17:22.467Z,62.77
2018-08-30T02:19:49.702Z,63.24
2018-08-30T02:22:16.944Z,63.32
2018-08-30T02:24:44.149Z,64.08
2018-08-30T02:27:11.374Z,64.58
2018-08-30T02:29:38.642Z,65.84
2018-08-30T02:32:05.963Z,68.44
2018-08-30T02:34:33.176Z,71.19
2018-08-30T02:37:00.445Z,72.61
2018-08-30T02:39:27.712Z,72.18
2018-08-30T02:41:54.917Z,72.75
2018-08-30T02:44:22.117Z,73.87
2018-08-30T02:46:49.367Z,75.15
2018-08-30T02:49:16.586Z,75.88
2018-08-30T02:51:43.813Z,76.25
2018-08-30T02:54:11.005Z,76.23
2018-08-30T02:56:38.235Z,75.94
2018-08-30T02:59:05.523Z,77.50
2018-08-30T03:01:32.763Z,77.72
2018-08-30T03:03:59.997Z,77.44
2018-08-30T03:06:27.344Z,77.67
2018-08-30T03:08:54.538Z,77.58
2018-08-30T03:11:21.759Z,76.76
2018-08-30T03:13:48.990Z,77.59
2018-08-30T03:16:16.213Z,76.98
2018-08-30T03:18:45.557Z,78.15
2018-08-30T03:21:14.057Z,78.68
2018-08-30T03:23:42.324Z,79.75
2018-08-30T03:26:09.566Z,78.97
2018-08-30T03:28:36.849Z,79.49
2018-08-30T03:31:04.267Z,79.18
2018-08-30T03:33:31.514Z,80.32
2018-08-30T03:35:58.739Z,80.16
2018-08-30T03:38:25.989Z,80.27
2018-08-30T03:40:53.216Z,80.09
2018-08-30T03:43:20.470Z,80.16
2018-08-30T03:45:47.732Z,79.85
2018-08-30T03:48:14.953Z,79.76
2018-08-30T03:50:42.173Z,78.82
2018-08-30T03:53:09.397Z,79.68
2018-08-30T03:55:36.610Z,79.69
2018-08-30T03:58:03.905Z,79.43
2018-08-30T04:00:31.110Z,79.26
2018-08-30T04:02:58.347Z,79.82
2018-08-30T04:05:25.576Z,79.83
2018-08-30T04:07:52.818Z,79.40
2018-08-30T04:10:20.076Z,79.12
2018-08-30T04:12:47.311Z,79.53
2018-08-30T04:15:14.541Z,79.74
2018-08-30T04:17:41.790Z,80.01
2018-08-30T04:20:09.037Z,80.03
2018-08-30T04:22:36.304Z,79.88
2018-08-30T04:25:03.543Z,80.13
2018-08-30T04:27:30.802Z,80.24
2018-08-30T04:29:58.029Z,80.44
2018-08-30T04:32:25.317Z,80.89
2018-08-30T04:34:52.560Z,80.41
2018-08-30T04:37:19.813Z,81.22
2018-08-30T04:39:47.064Z,80.59
2018-08-30T04:42:14.307Z,80.61
2018-08-30T04:44:41.585Z,80.67
2018-08-30T04:47:08.805Z,81.17
2018-08-30T04:49:36.066Z,80.63
2018-08-30T04:52:03.380Z,80.74
2018-08-30T04:54:30.627Z,79.19
2018-08-30T04:56:57.850Z,79.64
2018-08-30T04:59:25.104Z,78.69
2018-08-30T05:01:52.385Z,78.12
2018-08-30T05:04:20.486Z,76.31
2018-08-30T05:06:47.722Z,76.21
2018-08-30T05:09:14.974Z,76.47
2018-08-30T05:11:42.224Z,76.76
2018-08-30T05:14:09.687Z,75.64
2018-08-30T05:16:37.422Z,76.00
2018-08-30T05:19:04.911Z,76.25
2018-08-30T05:21:32.436Z,76.37
2018-08-30T05:23:59.705Z,76.44
2018-08-30T05:26:26.959Z,76.19
2018-08-30T05:28:54.193Z,76.09
2018-08-30T05:31:21.469Z,75.90
2018-08-30T05:33:48.733Z,76.08
2018-08-30T05:36:15.947Z,75.96
2018-08-30T05:38:43.282Z,76.40
2018-08-30T05:41:10.906Z,75.82
2018-08-30T05:43:38.399Z,74.95
2018-08-30T05:46:05.722Z,74.82
2018-08-30T05:48:33.025Z,74.56
2018-08-30T05:51:01.542Z,74.46
2018-08-30T05:53:29.790Z,73.59
2018-08-30T05:55:58.260Z,74.20
2018-08-30T05:58:26.462Z,73.57
2018-08-30T06:00:54.663Z,72.91
2018-08-30T06:03:21.955Z,73.81
2018-08-30T06:05:49.212Z,73.71
2018-08-30T06:08:16.503Z,73.52
2018-08-30T06:10:43.813Z,73.64
2018-08-30T06:13:11.104Z,73.75
2018-08-30T06:15:38.334Z,74.20
2018-08-30T06:18:05.649Z,74.18
2018-08-30T06:20:32.917Z,74.37
2018-08-30T06:23:00.213Z,74.83
2018-08-30T06:25:27.490Z,74.69
2018-08-30T06:27:54.728Z,75.17
2018-08-30T06:30:22.022Z,75.23
2018-08-30T06:32:49.293Z,75.32
2018-08-30T06:35:16.537Z,75.27
2018-08-30T06:37:43.835Z,74.68
2018-08-30T06:40:11.097Z,75.19
2018-08-30T06:42:38.329Z,74.86
2018-08-30T06:45:06.142Z,74.73
2018-08-30T06:47:33.391Z,75.05
2018-08-30T06:50:00.624Z,74.87
2018-08-30T06:52:27.903Z,74.29
2018-08-30T06:54:57.032Z,74.35
2018-08-30T06:57:24.304Z,74.12
2018-08-30T06:59:51.552Z,74.06
2018-08-30T07:02:18.771Z,72.96
2018-08-30T07:04:46.224Z,72.55
2018-08-30T07:07:13.465Z,72.72
2018-08-30T07:09:40.754Z,72.67
2018-08-30T07:12:08.026Z,72.35
2018-08-30T07:14:49.607Z,72.81
2018-08-30T07:17:31.276Z,72.80
2018-08-30T07:20:14.298Z,73.00
2018-08-30T07:22:56.283Z,73.28
2018-08-30T07:25:37.934Z,72.94
2018-08-30T07:28:05.187Z,73.33
2018-08-30T07:30:32.441Z,73.20
2018-08-30T07:32:59.665Z,73.41
2018-08-30T07:35:27.649Z,73.70
2018-08-30T07:37:54.878Z,73.65
2018-08-30T07:40:22.122Z,73.42
2018-08-30T07:42:49.343Z,73.41
2018-08-30T07:45:16.598Z,73.21
2018-08-30T07:47:43.840Z,73.36
2018-08-30T07:50:11.093Z,73.79
2018-08-30T07:52:38.304Z,73.59
2018-08-30T07:55:05.534Z,73.22
2018-08-30T07:57:32.772Z,73.35
2018-08-30T08:00:00.129Z,73.35
2018-08-30T08:02:27.392Z,72.96
2018-08-30T08:04:54.634Z,72.73
2018-08-30T08:07:21.949Z,73.10
2018-08-30T08:09:49.170Z,73.09
2018-08-30T08:12:16.397Z,72.41
2018-08-30T08:14:43.684Z,73.11
2018-08-30T08:17:10.925Z,72.68
2018-08-30T08:19:38.214Z,71.91
2018-08-30T08:22:05.626Z,72.07
2018-08-30T08:24:35.207Z,72.34
2018-08-30T08:27:02.489Z,72.33
2018-08-30T08:29:29.946Z,72.11
2018-08-30T08:31:57.226Z,71.89
2018-08-30T08:34:24.472Z,71.88
2018-08-30T08:36:51.782Z,71.74
2018-08-30T08:39:19.095Z,72.26
2018-08-30T08:41:46.395Z,71.87
2018-08-30T08:44:13.651Z,72.64
2018-08-30T08:46:40.899Z,73.10
2018-08-30T08:49:08.218Z,73.00
2018-08-30T08:51:35.500Z,73.34
2018-08-30T08:54:02.883Z,73.94
2018-08-30T08:56:30.158Z,73.27
2018-08-30T08:58:57.492Z,74.18
2018-08-30T09:03:58.830Z,74.15
2018-08-30T09:06:26.086Z,74.74
2018-08-30T09:08:53.441Z,74.24
2018-08-30T09:11:20.748Z,74.79
2018-08-30T09:13:48.254Z,74.77
2018-08-30T09:16:15.530Z,74.79
2018-08-30T09:18:42.893Z,74.53
2018-08-30T09:21:10.268Z,74.44
2018-08-30T09:23:37.525Z,74.67
2018-08-30T09:26:04.966Z,74.44
2018-08-30T09:28:32.300Z,74.89
2018-08-30T09:30:59.660Z,74.07
2018-08-30T09:33:26.816Z,74.80
2018-08-30T09:35:54.301Z,74.26
2018-08-30T09:38:21.568Z,73.87
2018-08-30T09:40:48.850Z,73.21
2018-08-30T09:43:16.077Z,73.27
2018-08-30T09:45:43.346Z,72.69
2018-08-30T09:48:10.609Z,72.97
2018-08-30T09:50:37.844Z,72.56
2018-08-30T09:53:05.121Z,72.55
2018-08-30T09:55:32.350Z,72.04
2018-08-30T09:57:59.605Z,71.89
2018-08-30T10:00:32.515Z,71.76
2018-08-30T10:02:59.805Z,71.56
2018-08-30T10:05:27.064Z,71.59
2018-08-30T10:07:54.412Z,71.33
2018-08-30T10:10:21.661Z,70.50
2018-08-30T10:12:48.909Z,69.93
2018-08-30T10:15:16.158Z,69.97
2018-08-30T10:17:43.577Z,69.74
2018-08-30T10:20:10.894Z,69.78
2018-08-30T10:22:38.237Z,69.83
2018-08-30T10:25:05.969Z,69.39
2018-08-30T10:27:33.289Z,69.54
2018-08-30T10:30:00.561Z,70.04
2018-08-30T10:32:28.043Z,69.93
2018-08-30T10:34:55.333Z,69.88
2018-08-30T10:37:22.701Z,70.22
2018-08-30T10:39:49.981Z,70.44
2018-08-30T10:42:17.244Z,70.41
2018-08-30T10:44:44.682Z,69.83
2018-08-30T10:47:11.945Z,70.00
2018-08-30T10:49:39.313Z,69.91
2018-08-30T10:52:06.765Z,69.89
2018-08-30T10:54:34.232Z,70.03
2018-08-30T10:57:01.553Z,70.09
2018-08-30T10:59:28.955Z,69.61
2018-08-30T11:01:56.367Z,69.27
2018-08-30T11:04:23.776Z,69.42
2018-08-30T11:06:51.074Z,69.59
2018-08-30T11:09:18.511Z,68.56
2018-08-30T11:11:45.850Z,68.92
2018-08-30T11:14:13.710Z,68.37
2018-08-30T11:16:41.039Z,67.43
2018-08-30T11:19:08.487Z,66.94
2018-08-30T11:21:35.782Z,65.59
2018-08-30T11:24:03.063Z,65.57
2018-08-30T11:26:30.285Z,65.14
2018-08-30T11:28:57.882Z,64.87
2018-08-30T11:31:25.145Z,64.93
2018-08-30T11:33:52.437Z,65.32
2018-08-30T11:36:27.910Z,64.53
2018-08-30T11:38:55.444Z,64.21
2018-08-30T11:41:22.769Z,64.10
2018-08-30T11:43:50.090Z,63.11
2018-08-30T11:46:17.410Z,62.73
2018-08-30T11:48:44.730Z,62.07
2018-08-30T11:51:12.060Z,60.56
2018-08-30T11:53:39.623Z,59.95
2018-08-30T11:56:06.924Z,58.19
2018-08-30T11:58:34.375Z,56.41
2018-08-30T12:01:01.882Z,57.00
2018-08-30T12:03:29.361Z,56.80
2018-08-30T12:05:56.687Z,57.68
2018-08-30T12:08:24.066Z,58.27
2018-08-30T12:10:51.460Z,58.63
2018-08-30T12:13:18.709Z,57.57
2018-08-30T12:15:45.959Z,56.17
2018-08-30T12:18:13.424Z,56.62
2018-08-30T12:20:40.933Z,57.10
2018-08-30T12:23:08.159Z,57.14
2018-08-30T12:25:36.287Z,56.60
2018-08-30T12:28:03.564Z,56.60
2018-08-30T12:30:30.849Z,56.94
2018-08-30T12:32:58.099Z,56.70
2018-08-30T12:35:25.600Z,56.68
2018-08-30T12:37:52.921Z,57.08
2018-08-30T12:40:21.119Z,57.20
2018-08-30T12:42:48.585Z,57.14
2018-08-30T12:45:15.722Z,55.93
2018-08-30T12:47:42.998Z,55.05
2018-08-30T12:50:10.365Z,53.20
2018-08-30T12:52:37.874Z,52.87
2018-08-30T12:55:05.398Z,53.31
2018-08-30T12:57:32.667Z,53.98
2018-08-30T12:59:59.939Z,54.28
2018-08-30T13:02:27.735Z,54.35
2018-08-30T13:04:55.013Z,54.71
2018-08-30T13:07:24.173Z,54.49
2018-08-30T13:09:51.687Z,53.39
2018-08-30T13:12:19.040Z,53.08
2018-08-30T13:14:46.467Z,52.90
2018-08-30T13:17:13.651Z,53.04
2018-08-30T13:19:41.255Z,53.31
2018-08-30T13:22:08.535Z,53.97
2018-08-30T13:24:35.925Z,53.29
2018-08-30T13:27:03.277Z,53.93
2018-08-30T13:29:30.449Z,54.86
2018-08-30T13:31:57.856Z,55.34
2018-08-30T13:34:25.310Z,56.22
2018-08-30T13:36:52.721Z,56.43
2018-08-30T13:39:20.164Z,57.11
2018-08-30T13:41:47.045Z,58.00
2018-08-30T13:44:14.334Z,58.49
2018-08-30T13:46:41.855Z,58.98
2018-08-30T13:49:10.109Z,58.60
2018-08-30T13:51:37.406Z,58.02
2018-08-30T13:54:04.915Z,57.92
2018-08-30T13:56:32.117Z,57.55
2018-08-30T13:58:59.382Z,57.83
2018-08-30T14:01:26.763Z,57.62
2018-08-30T14:03:53.728Z,57.40
2018-08-30T14:06:21.133Z,57.18
2018-08-30T14:08:48.419Z,57.08
2018-08-30T14:11:15.667Z,56.44
2018-08-30T14:13:43.689Z,56.25
2018-08-30T14:16:11.281Z,55.80
2018-08-30T14:18:38.532Z,55.77
2018-08-30T14:21:05.795Z,55.25
2018-08-30T14:23:33.365Z,54.86
2018-08-30T14:26:00.635Z,54.96
2018-08-30T14:28:27.885Z,54.56
2018-08-30T14:30:55.145Z,54.01
2018-08-30T14:33:22.426Z,53.60
2018-08-30T14:35:49.672Z,52.73
2018-08-30T14:38:16.966Z,52.27
2018-08-30T14:40:44.266Z,51.18
2018-08-30T14:43:11.449Z,50.54
2018-08-30T14:45:38.748Z,50.62
2018-08-30T14:48:06.065Z,51.01
2018-08-30T14:50:33.448Z,50.90
2018-08-30T14:53:00.663Z,50.27
2018-08-30T14:55:27.922Z,50.18
2018-08-30T14:57:55.125Z,50.07
2018-08-30T15:00:22.673Z,49.23
2018-08-30T15:02:49.842Z,48.69
2018-08-30T15:05:17.268Z,49.78
2018-08-30T15:07:44.369Z,49.71
2018-08-30T15:10:11.686Z,49.92
2018-08-30T15:12:38.938Z,50.40
2018-08-30T15:15:06.275Z,50.17
2018-08-30T15:17:33.622Z,51.07
2018-08-30T15:20:01.057Z,51.04
2018-08-30T15:22:28.363Z,50.60
2018-08-30T15:24:55.628Z,50.88
2018-08-30T15:27:22.890Z,51.05
2018-08-30T15:29:50.165Z,50.87
2018-08-30T15:32:17.378Z,50.51
2018-08-30T15:34:44.617Z,50.18
2018-08-30T15:37:11.847Z,50.06
2018-08-30T15:39:39.087Z,50.37
2018-08-30T15:42:06.330Z,50.78
2018-08-30T15:44:33.745Z,50.66
2018-08-30T15:47:01.039Z,49.86
2018-08-30T15:49:28.660Z,49.60
2018-08-30T15:51:56.018Z,50.24
2018-08-30T15:54:23.230Z,50.55
2018-08-30T15:56:50.498Z,50.55
2018-08-30T15:59:17.812Z,50.78
2018-08-30T16:01:45.014Z,50.76
2018-08-30T16:04:12.298Z,50.47
2018-08-30T16:06:39.593Z,49.95
2018-08-30T16:09:08.213Z,49.82
2018-08-30T16:11:35.490Z,47.00
2018-08-30T16:14:02.729Z,46.83
2018-08-30T16:16:29.969Z,46.25
2018-08-30T16:18:57.266Z,46.50
2018-08-30T16:21:24.632Z,46.02
2018-08-30T16:23:51.849Z,45.84
2018-08-30T16:26:19.108Z,46.35
2018-08-30T16:28:46.344Z,47.07
2018-08-30T16:31:13.641Z,46.00
2018-08-30T16:33:40.907Z,46.00
2018-08-30T16:36:08.194Z,45.03
2018-08-30T16:38:35.592Z,44.64
2018-08-30T16:41:02.861Z,44.57
2018-08-30T16:43:30.115Z,44.79
2018-08-30T16:45:57.527Z,44.70
2018-08-30T16:48:24.913Z,44.37
2018-08-30T16:50:52.151Z,44.22
2018-08-30T16:53:19.450Z,44.68
2018-08-30T16:55:46.680Z,44.34
2018-08-30T16:58:13.974Z,44.84
2018-08-30T17:00:41.219Z,45.05
2018-08-30T17:03:08.685Z,44.57
2018-08-30T17:05:35.949Z,44.79
2018-08-30T17:08:03.195Z,44.94
2018-08-30T17:10:30.473Z,45.22
2018-08-30T17:12:58.708Z,45.35
2018-08-30T17:15:25.926Z,45.30
2018-08-30T17:17:53.254Z,45.09
2018-08-30T17:20:27.025Z,45.44
2018-08-30T17:22:54.299Z,45.55
2018-08-30T17:25:21.604Z,45.41
2018-08-30T17:27:48.770Z,45.60
2018-08-30T17:30:15.961Z,45.37
2018-08-30T17:32:43.294Z,45.28
2018-08-30T17:35:10.482Z,45.13
2018-08-30T17:37:37.739Z,44.96
2018-08-30T17:40:05.308Z,45.06
2018-08-30T17:42:32.600Z,45.27
2018-08-30T17:44:59.837Z,45.14
2018-08-30T17:47:27.091Z,45.63
2018-08-30T17:49:54.366Z,45.78
2018-08-30T17:52:21.646Z,46.08
2018-08-30T17:54:48.914Z,46.49
2018-08-30T17:57:16.203Z,47.09
2018-08-30T17:59:43.548Z,47.38
2018-08-30T18:02:10.922Z,47.71
2018-08-30T18:04:38.406Z,47.94
2018-08-30T18:07:05.880Z,48.00
2018-08-30T18:09:33.182Z,48.59
2018-08-30T18:12:00.428Z,48.68
2018-08-30T18:14:27.814Z,48.67
2018-08-30T18:16:55.045Z,48.99
2018-08-30T18:19:22.303Z,49.09
2018-08-30T18:21:49.572Z,49.14
2018-08-30T18:24:16.879Z,49.66
2018-08-30T18:26:44.206Z,49.71
2018-08-30T18:29:11.472Z,49.80
2018-08-30T18:31:38.804Z,49.95
2018-08-30T18:34:06.082Z,50.05
2018-08-30T18:36:33.442Z,50.16
2018-08-30T18:39:00.658Z,50.50
2018-08-30T18:41:27.976Z,50.65
2018-08-30T18:43:55.314Z,51.13
2018-08-30T18:46:22.641Z,51.14
2018-08-30T18:48:49.975Z,51.56
2018-08-30T18:51:17.326Z,51.44
2018-08-30T18:53:47.466Z,52.03
2018-08-30T18:56:14.719Z,52.14
2018-08-30T18:58:42.034Z,52.02
2018-08-30T19:01:09.446Z,52.43
2018-08-30T19:03:36.798Z,53.08
2018-08-30T19:06:04.172Z,53.11
2018-08-30T19:08:31.496Z,53.71
2018-08-30T19:10:58.726Z,53.65
2018-08-30T19:13:26.213Z,54.08
2018-08-30T19:15:59.153Z,54.17
2018-08-30T19:18:32.233Z,54.64
2018-08-30T19:20:59.549Z,54.74
2018-08-30T19:23:26.920Z,54.87
2018-08-30T19:25:54.175Z,55.63
2018-08-30T19:28:21.461Z,55.49
2018-08-30T19:30:48.715Z,55.76
2018-08-30T19:33:16.014Z,56.43
2018-08-30T19:35:48.829Z,56.19
2018-08-30T19:38:16.170Z,56.72
2018-08-30T19:40:49.180Z,57.45
2018-08-30T19:43:23.149Z,57.57
2018-08-30T19:45:50.402Z,57.67
2018-08-30T19:48:17.748Z,57.86
2018-08-30T19:50:45.048Z,58.17
2018-08-30T19:53:12.349Z,58.56
2018-08-30T19:55:39.826Z,58.33
2018-08-30T19:58:07.168Z,58.64
2018-08-30T20:00:34.385Z,58.51
2018-08-30T20:03:01.716Z,59.02
2018-08-30T20:05:29.839Z,59.06
2018-08-30T20:07:57.218Z,59.07
2018-08-30T20:10:24.606Z,58.93
2018-08-30T20:12:51.858Z,59.56
2018-08-30T20:15:19.087Z,59.53
2018-08-30T20:17:46.330Z,59.62
2018-08-30T20:20:13.545Z,59.78
2018-08-30T20:22:40.816Z,60.00
2018-08-30T20:25:08.022Z,59.97
2018-08-30T20:27:35.514Z,60.45
2018-08-30T20:30:02.832Z,60.35
2018-08-30T20:32:30.074Z,61.30
2018-08-30T20:34:57.298Z,61.40
2018-08-30T20:37:24.506Z,62.05
2018-08-30T20:39:52.270Z,62.60
2018-08-30T20:42:19.482Z,62.36
2018-08-30T20:44:46.906Z,63.31
2018-08-30T20:47:14.214Z,63.24
2018-08-30T20:49:41.787Z,63.02
2018-08-30T20:52:09.070Z,63.89
2018-08-30T20:54:36.298Z,64.29
2018-08-30T20:57:03.774Z,64.11
2018-08-30T20:59:31.315Z,64.51
2018-08-30T21:01:58.573Z,64.40
2018-08-30T21:04:25.817Z,64.75
2018-08-30T21:06:53.041Z,65.33
2018-08-30T21:09:20.306Z,65.62
2018-08-30T21:11:47.546Z,66.53
2018-08-30T21:14:14.793Z,66.43
2018-08-30T21:16:41.987Z,67.00
2018-08-30T21:19:10.201Z,66.63
2018-08-30T21:21:38.498Z,66.84
2018-08-30T21:24:05.782Z,67.12
2018-08-30T21:26:32.987Z,67.93
2018-08-30T21:29:00.222Z,67.70
2018-08-30T21:31:27.430Z,68.44
2018-08-30T21:33:54.786Z,68.82
2018-08-30T21:36:21.993Z,68.56
2018-08-30T21:38:49.249Z,69.02
2018-08-30T21:41:16.461Z,69.86
2018-08-30T21:43:43.706Z,69.66
2018-08-30T21:46:11.004Z,70.25
2018-08-30T21:48:38.279Z,70.13
2018-08-30T21:51:05.525Z,70.00
2018-08-30T21:53:32.754Z,70.36
2018-08-30T21:56:00.011Z,70.42
2018-08-30T21:58:27.204Z,70.72
2018-08-30T22:00:54.454Z,71.16
2018-08-30T22:03:21.697Z,71.26
2018-08-30T22:05:48.939Z,71.49
2018-08-30T22:08:16.165Z,71.47
2018-08-30T22:10:43.570Z,71.57
2018-08-30T22:13:10.930Z,71.94
2018-08-30T22:15:38.125Z,72.52
2018-08-30T22:18:05.383Z,72.02
2018-08-30T22:20:32.985Z,72.37
2018-08-30T22:23:00.200Z,73.09
2018-08-30T22:25:27.425Z,72.69
2018-08-30T22:27:54.653Z,73.10
2018-08-30T22:30:21.893Z,73.81
2018-08-30T22:32:49.086Z,72.96
2018-08-30T22:35:16.309Z,73.77
2018-08-30T22:37:43.521Z,73.31
2018-08-30T22:40:10.769Z,73.86
2018-08-30T22:42:37.977Z,73.46
2018-08-30T22:45:05.422Z,74.50
2018-08-30T22:47:33.052Z,75.13
2018-08-30T22:50:00.303Z,75.15
2018-08-30T22:52:27.922Z,74.86
2018-08-30T22:54:55.503Z,74.98
2018-08-30T22:57:22.723Z,74.94
2018-08-30T22:59:49.967Z,75.42
2018-08-30T23:02:17.159Z,75.55
2018-08-30T23:04:44.406Z,75.76
2018-08-30T23:07:11.673Z,76.11
2018-08-30T23:09:38.894Z,76.26
2018-08-30T23:12:06.245Z,75.77
2018-08-30T23:14:33.505Z,75.88
2018-08-30T23:17:00.853Z,76.61
2018-08-30T23:19:28.109Z,76.49
2018-08-30T23:21:55.349Z,76.67
2018-08-30T23:24:22.557Z,77.02
2018-08-30T23:26:49.797Z,77.05
2018-08-30T23:29:16.982Z,76.70
2018-08-30T23:31:44.199Z,76.21
2018-08-30T23:34:11.405Z,76.44
2018-08-30T23:36:38.625Z,77.12
2018-08-30T23:39:07.505Z,76.74
2018-08-30T23:41:34.749Z,77.33
2018-08-30T23:44:01.942Z,77.35
2018-08-30T23:46:29.169Z,77.55
2018-08-30T23:48:56.362Z,78.19
2018-08-30T23:51:23.666Z,78.14
2018-08-30T23:53:50.857Z,78.42
2018-08-30T23:56:18.176Z,78.04
2018-08-30T23:58:56.977Z,77.55
